Time,TemperatureF,DewpointF,PressureIn,WindDirection,WindDirectionDegrees,WindSpeedMPH,WindSpeedGustMPH,Humidity,HourlyPrecipIn,Conditions,Clouds,dailyrainin,SolarRadiationWatts/m^2,SoftwareType,DateUTC
2013-05-07 00:02:00,51.0,27.0,-100.00,NW,316,4.0,7.0,39,0.00,,,0.00,0.000000,,2013-05-07 06:02:00,
2013-05-07 00:12:00,51.0,27.0,-100.00,NW,316,4.0,7.0,39,0.00,,,0.00,0.000000,,2013-05-07 06:12:00,
2013-05-07 00:32:00,50.0,27.0,-100.00,NW,321,6.0,8.0,41,0.00,,,0.00,0.000000,,2013-05-07 06:32:00,
2013-05-07 00:42:00,50.0,27.0,-100.00,NW,321,6.0,8.0,41,0.00,,,0.00,0.000000,,2013-05-07 06:42:00,
2013-05-07 00:52:00,50.0,27.0,-100.00,NW,321,6.0,8.0,41,0.00,,,0.00,0.000000,,2013-05-07 06:52:00,
2013-05-07 01:02:00,50.0,27.0,-100.00,NW,321,6.0,8.0,41,0.00,,,0.00,0.000000,,2013-05-07 07:02:00,
2013-05-07 01:11:00,50.0,27.0,-100.00,NW,321,6.0,8.0,41,0.00,,,0.00,0.000000,,2013-05-07 07:11:00,
2013-05-07 01:42:00,49.0,26.0,-100.00,NW,318,5.0,8.0,41,0.00,,,0.00,0.000000,,2013-05-07 07:42:00,
2013-05-07 01:52:00,49.0,26.0,-100.00,NW,318,5.0,8.0,41,0.00,,,0.00,0.000000,,2013-05-07 07:52:00,
2013-05-07 02:02:00,49.0,26.0,-100.00,NW,318,5.0,8.0,41,0.00,,,0.00,0.000000,,2013-05-07 08:02:00,
2013-05-07 02:11:00,49.0,26.0,-100.00,NW,318,5.0,8.0,41,0.00,,,0.00,0.000000,,2013-05-07 08:11:00,
2013-05-07 02:32:00,50.0,25.0,-100.00,NW,315,5.0,7.0,38,0.00,,,0.00,0.000000,,2013-05-07 08:32:00,
2013-05-07 02:42:00,50.0,25.0,-100.00,NW,315,5.0,7.0,38,0.00,,,0.00,0.000000,,2013-05-07 08:42:00,
2013-05-07 02:52:00,50.0,25.0,-100.00,NW,315,5.0,7.0,38,0.00,,,0.00,0.000000,,2013-05-07 08:52:00,
2013-05-07 03:01:00,50.0,25.0,-100.00,NW,315,5.0,7.0,38,0.00,,,0.00,0.000000,,2013-05-07 09:01:00,
2013-05-07 03:11:00,50.0,25.0,-100.00,NW,315,5.0,7.0,38,0.00,,,0.00,0.000000,,2013-05-07 09:11:00,
2013-05-07 03:33:00,49.0,25.0,-100.00,NW,316,4.0,7.0,38,0.00,,,0.00,0.000000,,2013-05-07 09:33:00,
2013-05-07 03:43:00,49.0,25.0,-100.00,NW,316,4.0,7.0,38,0.00,,,0.00,0.000000,,2013-05-07 09:43:00,
2013-05-07 03:52:00,49.0,25.0,-100.00,NW,316,4.0,7.0,38,0.00,,,0.00,0.000000,,2013-05-07 09:52:00,
2013-05-07 04:03:00,49.0,25.0,-100.00,NW,316,4.0,7.0,38,0.00,,,0.00,0.000000,,2013-05-07 10:03:00,
2013-05-07 04:12:00,49.0,25.0,-100.00,NW,316,4.0,7.0,38,0.00,,,0.00,0.000000,,2013-05-07 10:12:00,
2013-05-07 04:33:00,49.0,25.0,-100.00,NW,309,3.0,6.0,38,0.00,,,0.00,0.000000,,2013-05-07 10:33:00,
2013-05-07 04:42:00,49.0,25.0,-100.00,NW,309,3.0,6.0,38,0.00,,,0.00,0.000000,,2013-05-07 10:42:00,
2013-05-07 04:52:00,49.0,25.0,-100.00,NW,309,3.0,6.0,38,0.00,,,0.00,0.000000,,2013-05-07 10:52:00,
2013-05-07 05:02:00,49.0,25.0,-100.00,NW,309,3.0,6.0,38,0.00,,,0.00,0.000000,,2013-05-07 11:02:00,
2013-05-07 05:12:00,49.0,25.0,-100.00,NW,309,3.0,6.0,38,0.00,,,0.00,0.000000,,2013-05-07 11:12:00,
2013-05-07 05:32:00,44.0,27.0,-100.00,SW,222,1.0,4.0,50,0.00,,,0.00,0.000000,,2013-05-07 11:32:00,
2013-05-07 05:42:00,44.0,27.0,-100.00,SW,222,1.0,4.0,50,0.00,,,0.00,0.000000,,2013-05-07 11:42:00,
2013-05-07 05:52:00,44.0,27.0,-100.00,SW,222,1.0,4.0,50,0.00,,,0.00,0.000000,,2013-05-07 11:52:00,
2013-05-07 06:02:00,44.0,27.0,-100.00,SW,222,1.0,4.0,50,0.00,,,0.00,0.000000,,2013-05-07 12:02:00,
2013-05-07 06:11:00,44.0,27.0,-100.00,SW,222,1.0,4.0,50,0.00,,,0.00,0.000000,,2013-05-07 12:11:00,
2013-05-07 06:32:00,44.0,28.0,-100.00,SW,224,1.0,3.0,53,0.00,,,-99.99,6.000000,,2013-05-07 12:32:00,
2013-05-07 06:42:00,44.0,28.0,-100.00,SW,224,1.0,3.0,53,0.00,,,-99.99,6.000000,,2013-05-07 12:42:00,
2013-05-07 06:52:00,44.0,28.0,-100.00,SW,224,1.0,3.0,53,0.00,,,-99.99,6.000000,,2013-05-07 12:52:00,
2013-05-07 07:02:00,44.0,28.0,-100.00,SW,224,1.0,3.0,53,0.00,,,-99.99,6.000000,,2013-05-07 13:02:00,
2013-05-07 07:11:00,44.0,28.0,-100.00,SW,224,1.0,3.0,53,0.00,,,-99.99,6.000000,,2013-05-07 13:11:00,
2013-05-07 07:42:00,45.0,32.0,-100.00,NW,308,2.0,3.0,59,0.00,,,-99.99,38.000000,,2013-05-07 13:42:00,
2013-05-07 07:52:00,45.0,32.0,-100.00,NW,308,2.0,3.0,59,0.00,,,-99.99,38.000000,,2013-05-07 13:52:00,
2013-05-07 08:02:00,45.0,32.0,-100.00,NW,308,2.0,3.0,59,0.00,,,-99.99,38.000000,,2013-05-07 14:02:00,
2013-05-07 08:11:00,45.0,32.0,-100.00,NW,308,2.0,3.0,59,0.00,,,-99.99,38.000000,,2013-05-07 14:11:00,
2013-05-07 08:42:00,52.0,36.0,-100.00,SE,125,5.0,7.0,54,0.00,,,0.00,243.000000,,2013-05-07 14:42:00,
2013-05-07 08:52:00,52.0,36.0,-100.00,SE,125,5.0,7.0,54,0.00,,,0.00,243.000000,,2013-05-07 14:52:00,
2013-05-07 09:01:00,52.0,36.0,-100.00,SE,125,5.0,7.0,54,0.00,,,0.00,243.000000,,2013-05-07 15:01:00,
2013-05-07 09:12:00,52.0,36.0,-100.00,SE,125,5.0,7.0,54,0.00,,,0.00,243.000000,,2013-05-07 15:12:00,
2013-05-07 09:33:00,57.0,39.0,-100.00,SE,129,7.0,11.0,50,0.00,,,0.00,487.000000,,2013-05-07 15:33:00,
2013-05-07 09:42:00,57.0,39.0,-100.00,SE,129,7.0,11.0,50,0.00,,,0.00,487.000000,,2013-05-07 15:42:00,
2013-05-07 09:53:00,57.0,39.0,-100.00,SE,129,7.0,11.0,50,0.00,,,0.00,487.000000,,2013-05-07 15:53:00,
2013-05-07 10:03:00,57.0,39.0,-100.00,SE,129,7.0,11.0,50,0.00,,,0.00,487.000000,,2013-05-07 16:03:00,
2013-05-07 10:12:00,57.0,39.0,-100.00,SE,129,7.0,11.0,50,0.00,,,0.00,487.000000,,2013-05-07 16:12:00,
2013-05-07 12:42:00,66.0,40.0,-100.00,SSE,150,11.0,18.0,39,-99.99,,,0.00,1056.000000,,2013-05-07 18:42:00,
2013-05-07 12:52:00,66.0,40.0,-100.00,SSE,150,11.0,18.0,39,-99.99,,,0.00,1056.000000,,2013-05-07 18:52:00,
2013-05-07 13:02:00,66.0,40.0,-100.00,SSE,150,11.0,18.0,39,-99.99,,,0.00,1056.000000,,2013-05-07 19:02:00,
2013-05-07 13:11:00,66.0,40.0,-100.00,SSE,150,11.0,18.0,39,-99.99,,,0.00,1056.000000,,2013-05-07 19:11:00,
2013-05-07 14:42:00,67.0,36.0,-100.00,SE,125,6.0,17.0,32,-99.99,,,0.00,578.000000,,2013-05-07 20:42:00,
2013-05-07 14:52:00,67.0,36.0,-100.00,SE,125,6.0,17.0,32,-99.99,,,0.00,578.000000,,2013-05-07 20:52:00,
2013-05-07 15:01:00,67.0,36.0,-100.00,SE,125,6.0,17.0,32,-99.99,,,0.00,578.000000,,2013-05-07 21:01:00,
2013-05-07 15:11:00,67.0,36.0,-100.00,SE,125,6.0,17.0,32,-99.99,,,0.00,578.000000,,2013-05-07 21:11:00,
2013-05-07 15:13:00,65.0,37.0,-100.00,NNE,15,6.0,11.0,36,0.00,,,0.00,252.000000,,2013-05-07 21:13:00,
2013-05-07 15:33:00,65.0,37.0,-100.00,NNE,15,6.0,11.0,36,0.00,,,0.00,252.000000,,2013-05-07 21:33:00,
2013-05-07 15:43:00,65.0,37.0,-100.00,NNE,15,6.0,11.0,36,0.00,,,0.00,252.000000,,2013-05-07 21:43:00,
2013-05-07 15:53:00,65.0,37.0,-100.00,NNE,15,6.0,11.0,36,0.00,,,0.00,252.000000,,2013-05-07 21:53:00,
2013-05-07 16:02:00,65.0,37.0,-100.00,NNE,15,6.0,11.0,36,0.00,,,0.00,252.000000,,2013-05-07 22:02:00,
2013-05-07 16:33:00,69.0,36.0,-100.00,North,5,5.0,11.0,30,0.00,,,0.00,730.000000,,2013-05-07 22:33:00,
2013-05-07 16:42:00,69.0,36.0,-100.00,North,5,5.0,11.0,30,0.00,,,0.00,730.000000,,2013-05-07 22:42:00,
2013-05-07 16:52:00,69.0,36.0,-100.00,North,5,5.0,11.0,30,0.00,,,0.00,730.000000,,2013-05-07 22:52:00,
2013-05-07 17:02:00,69.0,36.0,-100.00,North,5,5.0,11.0,30,0.00,,,0.00,730.000000,,2013-05-07 23:02:00,
2013-05-07 17:12:00,69.0,36.0,-100.00,North,5,5.0,11.0,30,0.00,,,0.00,730.000000,,2013-05-07 23:12:00,
2013-05-07 17:32:00,71.0,35.0,-100.00,North,355,2.0,8.0,27,0.00,,,0.00,586.000000,,2013-05-07 23:32:00,
2013-05-07 17:42:00,71.0,35.0,-100.00,North,355,2.0,8.0,27,0.00,,,0.00,586.000000,,2013-05-07 23:42:00,
2013-05-07 17:52:00,71.0,35.0,-100.00,North,355,2.0,8.0,27,0.00,,,0.00,586.000000,,2013-05-07 23:52:00,
2013-05-07 18:02:00,71.0,35.0,-100.00,North,355,2.0,8.0,27,0.00,,,0.00,586.000000,,2013-05-08 00:02:00,
2013-05-07 18:11:00,71.0,35.0,-100.00,North,355,2.0,8.0,27,0.00,,,0.00,586.000000,,2013-05-08 00:11:00,
2013-05-07 18:42:00,69.0,37.0,-100.00,East,79,4.0,10.0,31,0.00,,,-99.99,348.000000,,2013-05-08 00:42:00,
2013-05-07 18:52:00,69.0,37.0,-100.00,East,79,4.0,10.0,31,0.00,,,-99.99,348.000000,,2013-05-08 00:52:00,
2013-05-07 19:02:00,69.0,37.0,-100.00,East,79,4.0,10.0,31,0.00,,,-99.99,348.000000,,2013-05-08 01:02:00,
2013-05-07 19:11:00,69.0,37.0,-100.00,East,79,4.0,10.0,31,0.00,,,-99.99,348.000000,,2013-05-08 01:11:00,
2013-05-07 19:32:00,66.0,38.0,-100.00,East,92,5.0,10.0,36,0.00,,,0.00,242.000000,,2013-05-08 01:32:00,
2013-05-07 19:42:00,66.0,38.0,-100.00,East,92,5.0,10.0,36,0.00,,,0.00,242.000000,,2013-05-08 01:42:00,
2013-05-07 19:52:00,66.0,38.0,-100.00,East,92,5.0,10.0,36,0.00,,,0.00,242.000000,,2013-05-08 01:52:00,
2013-05-07 20:02:00,66.0,38.0,-100.00,East,92,5.0,10.0,36,0.00,,,0.00,242.000000,,2013-05-08 02:02:00,
2013-05-07 20:12:00,66.0,38.0,-100.00,East,92,5.0,10.0,36,0.00,,,0.00,242.000000,,2013-05-08 02:12:00,
2013-05-07 20:32:00,55.0,43.0,-100.00,NE,56,6.0,19.0,64,0.00,,,0.00,12.000000,,2013-05-08 02:32:00,
2013-05-07 20:42:00,55.0,43.0,-100.00,NE,56,6.0,19.0,64,0.00,,,0.00,12.000000,,2013-05-08 02:42:00,
2013-05-07 20:52:00,55.0,43.0,-100.00,NE,56,6.0,19.0,64,0.00,,,0.00,12.000000,,2013-05-08 02:52:00,
2013-05-07 21:02:00,55.0,43.0,-100.00,NE,56,6.0,19.0,64,0.00,,,0.00,12.000000,,2013-05-08 03:02:00,
2013-05-07 21:11:00,55.0,43.0,-100.00,NE,56,6.0,19.0,64,0.00,,,0.00,12.000000,,2013-05-08 03:11:00,
2013-05-07 21:13:00,52.0,43.0,-100.00,ESE,109,3.0,9.0,71,0.00,,,0.00,0.000000,,2013-05-08 03:13:00,
2013-05-07 21:33:00,52.0,43.0,-100.00,ESE,109,3.0,9.0,71,0.00,,,0.00,0.000000,,2013-05-08 03:33:00,
2013-05-07 21:43:00,52.0,43.0,-100.00,ESE,109,3.0,9.0,71,0.00,,,0.00,0.000000,,2013-05-08 03:43:00,
2013-05-07 21:52:00,52.0,43.0,-100.00,ESE,109,3.0,9.0,71,0.00,,,0.00,0.000000,,2013-05-08 03:52:00,
2013-05-07 22:02:00,52.0,43.0,-100.00,ESE,109,3.0,9.0,71,0.00,,,0.00,0.000000,,2013-05-08 04:02:00,
2013-05-07 22:43:00,50.0,43.0,-100.00,WSW,252,3.0,8.0,76,0.00,,,0.00,0.000000,,2013-05-08 04:43:00,
2013-05-07 22:53:00,50.0,43.0,-100.00,WSW,252,3.0,8.0,76,0.00,,,0.00,0.000000,,2013-05-08 04:53:00,
2013-05-07 23:02:00,50.0,43.0,-100.00,WSW,252,3.0,8.0,76,0.00,,,0.00,0.000000,,2013-05-08 05:02:00,
2013-05-07 23:12:00,50.0,43.0,-100.00,WSW,252,3.0,8.0,76,0.00,,,0.00,0.000000,,2013-05-08 05:12:00,
2013-05-07 23:32:00,52.0,43.0,-100.00,West,260,3.0,6.0,71,0.00,,,0.00,0.000000,,2013-05-08 05:32:00,
2013-05-07 23:42:00,52.0,43.0,-100.00,West,260,3.0,6.0,71,0.00,,,0.00,0.000000,,2013-05-08 05:42:00,
2013-05-07 23:52:00,52.0,43.0,-100.00,West,260,3.0,6.0,71,0.00,,,0.00,0.000000,,2013-05-08 05:52:00,